Time;durP1;ratioP1;P1;durP2;ratioP2;P2;SDS_P1;SDS_P2;PMS_P1;PMS_P2;Temp;Humidity;BMP_temperature;BMP_pressure;BME280_temperature;BME280_humidity;BME280_pressure;Samples;Min_cycle;Max_cycle;Signal;HPM_P1;HPM_P2
2022/04/07 00:01:10;;;;;;;2.97;1.02;;;20.20;52.00;;;;;;4540971;31;20076;-70
2022/04/07 00:03:36;;;;;;;6.03;1.33;;;20.20;52.10;;;;;;4526656;31;20083;-70
2022/04/07 00:06:07;;;;;;;3.33;1.13;;;20.10;52.00;;;;;;4526325;31;20091;-70
2022/04/07 00:08:33;;;;;;;4.82;1.27;;;20.10;52.10;;;;;;4541420;31;20108;-70
2022/04/07 00:10:59;;;;;;;6.45;1.30;;;20.10;52.10;;;;;;4540733;31;20406;-70
2022/04/07 00:13:25;;;;;;;5.32;1.30;;;20.10;52.10;;;;;;4540859;31;20079;-71
2022/04/07 00:15:53;;;;;;;4.63;1.10;;;20.10;52.10;;;;;;4540981;31;20064;-70
2022/04/07 00:18:19;;;;;;;5.05;1.30;;;20.10;52.10;;;;;;4541242;31;20221;-70
2022/04/07 00:20:45;;;;;;;4.00;1.58;;;20.10;52.10;;;;;;4540387;31;20107;-70
2022/04/07 00:23:11;;;;;;;5.88;1.67;;;20.10;52.10;;;;;;4540819;31;20532;-71
2022/04/07 00:25:37;;;;;;;3.10;1.02;;;20.00;52.10;;;;;;4540944;31;20072;-71
2022/04/07 00:28:03;;;;;;;5.93;1.27;;;20.00;52.10;;;;;;4513330;31;20104;-70
2022/04/07 00:30:30;;;;;;;5.45;1.40;;;20.00;52.00;;;;;;4538668;31;20087;-70
2022/04/07 00:32:56;;;;;;;4.43;1.60;;;20.00;53.00;;;;;;4540769;31;20528;-70
2022/04/07 00:35:26;;;;;;;3.75;1.05;;;20.00;52.10;;;;;;4513232;31;20060;-70
2022/04/07 00:37:52;;;;;;;5.95;1.33;;;20.00;52.10;;;;;;4540760;31;20134;-70
2022/04/07 00:40:18;;;;;;;4.28;1.23;;;20.00;52.10;;;;;;4540818;31;20172;-70
2022/04/07 00:42:49;;;;;;;4.97;1.00;;;20.00;52.10;;;;;;4540587;31;20080;-70
2022/04/07 00:45:18;;;;;;;4.63;1.20;;;19.90;52.10;;;;;;4540775;31;20088;-72
2022/04/07 00:47:44;;;;;;;4.07;1.23;;;19.90;52.10;;;;;;4540736;31;20119;-70
2022/04/07 00:50:12;;;;;;;4.85;0.90;;;19.90;52.10;;;;;;4525884;31;20088;-70
2022/04/07 00:52:45;;;;;;;4.35;1.10;;;19.90;52.10;;;;;;4540644;31;20096;-70
2022/04/07 00:55:12;;;;;;;4.18;1.33;;;19.90;52.10;;;;;;4540517;31;20064;-70
2022/04/07 00:57:39;;;;;;;4.45;1.10;;;19.90;52.10;;;;;;4540565;31;20072;-70
2022/04/07 01:00:07;;;;;;;4.55;1.20;;;19.90;52.10;;;;;;4540166;31;20068;-70
2022/04/07 01:02:33;;;;;;;4.38;1.10;;;19.90;52.10;;;;;;4526026;31;20092;-70
2022/04/07 01:04:59;;;;;;;4.20;0.90;;;19.90;52.10;;;;;;4540475;31;20065;-70
2022/04/07 01:07:28;;;;;;;2.88;0.90;;;19.90;52.10;;;;;;4540014;31;20190;-70
2022/04/07 01:09:54;;;;;;;5.28;1.17;;;19.80;52.10;;;;;;4525393;31;20132;-70
2022/04/07 01:12:19;;;;;;;3.33;0.90;;;19.80;52.10;;;;;;4540050;31;20104;-70
2022/04/07 01:14:59;;;;;;;4.55;0.98;;;19.80;52.10;;;;;;4540079;31;20087;-70
2022/04/07 01:17:26;;;;;;;3.88;1.05;;;19.80;52.00;;;;;;4540025;31;20160;-70
2022/04/07 01:19:53;;;;;;;4.53;1.30;;;19.80;52.10;;;;;;4525760;31;20366;-70
2022/04/07 01:22:20;;;;;;;3.67;1.33;;;19.80;52.10;;;;;;4539858;31;20119;-70
2022/04/07 01:24:47;;;;;;;4.35;0.90;;;19.80;52.10;;;;;;4540020;31;20090;-70
2022/04/07 01:27:14;;;;;;;4.32;1.27;;;19.80;52.10;;;;;;4539849;31;20076;-70
2022/04/07 01:29:40;;;;;;;3.15;0.85;;;19.70;52.10;;;;;;4539556;31;20246;-70
2022/04/07 01:32:14;;;;;;;4.88;1.15;;;19.80;52.10;;;;;;4511705;31;20234;-70
2022/04/07 01:34:41;;;;;;;4.25;1.00;;;19.80;52.10;;;;;;4540143;31;20122;-70
2022/04/07 01:37:08;;;;;;;3.92;1.20;;;19.80;52.10;;;;;;4540058;31;20071;-70
2022/04/07 01:39:36;;;;;;;3.75;1.00;;;19.70;52.00;;;;;;4539984;31;20094;-70
2022/04/07 01:42:03;;;;;;;6.32;1.35;;;19.70;52.00;;;;;;4525147;31;20165;-70
2022/04/07 01:44:30;;;;;;;3.13;1.02;;;19.70;52.10;;;;;;4525123;31;20086;-70
2022/04/07 01:46:57;;;;;;;3.80;1.15;;;19.70;53.00;;;;;;4539665;31;20084;-70
2022/04/07 01:49:23;;;;;;;4.32;1.10;;;19.70;52.10;;;;;;4539410;31;20099;-70
2022/04/07 01:51:50;;;;;;;4.65;1.25;;;19.70;52.10;;;;;;4525428;31;20088;-70
2022/04/07 01:54:17;;;;;;;3.45;0.90;;;19.70;52.00;;;;;;4525240;31;20090;-70
2022/04/07 01:56:43;;;;;;;3.13;0.75;;;19.70;52.10;;;;;;4525371;31;20528;-70
2022/04/07 01:59:10;;;;;;;5.07;1.15;;;19.70;52.10;;;;;;4524801;31;20090;-70
2022/04/07 02:01:36;;;;;;;3.38;0.95;;;19.70;52.90;;;;;;4525117;31;20072;-70
2022/04/07 02:04:03;;;;;;;5.78;1.20;;;19.70;52.10;;;;;;4539796;31;20138;-70
2022/04/07 02:06:30;;;;;;;3.67;1.00;;;19.70;52.00;;;;;;4539473;31;20072;-70
2022/04/07 02:08:56;;;;;;;4.82;1.23;;;19.60;52.00;;;;;;4539262;31;20092;-70
2022/04/07 02:11:22;;;;;;;4.22;1.17;;;19.60;52.00;;;;;;4539622;31;20166;-71
2022/04/07 02:13:49;;;;;;;6.25;1.20;;;19.60;52.00;;;;;;4539487;31;20091;-70
2022/04/07 02:16:15;;;;;;;6.70;1.33;;;19.60;52.00;;;;;;4539758;31;20090;-70
2022/04/07 02:18:41;;;;;;;4.15;1.05;;;19.60;52.00;;;;;;4525044;31;20084;-70
2022/04/07 02:21:08;;;;;;;5.00;1.20;;;19.60;52.00;;;;;;4524998;31;20069;-70
2022/04/07 02:23:42;;;;;;;5.65;1.45;;;19.60;52.00;;;;;;4539137;31;20116;-70
2022/04/07 02:26:12;;;;;;;3.47;1.10;;;19.60;52.00;;;;;;4539756;31;20079;-70
2022/04/07 02:28:38;;;;;;;5.45;1.40;;;19.60;52.00;;;;;;4524664;31;20104;-70
2022/04/07 02:31:05;;;;;;;4.60;1.30;;;19.60;52.00;;;;;;4539382;31;20560;-70
2022/04/07 02:33:32;;;;;;;3.90;1.02;;;19.60;52.00;;;;;;4539315;31;20100;-70
2022/04/07 02:35:57;;;;;;;4.07;1.30;;;19.50;51.90;;;;;;4524621;31;20096;-71
2022/04/07 02:38:23;;;;;;;4.35;1.15;;;19.50;51.90;;;;;;4524845;31;20197;-70
2022/04/07 02:40:49;;;;;;;3.22;1.20;;;19.50;51.90;;;;;;4524940;31;20418;-70
2022/04/07 02:43:15;;;;;;;4.53;1.23;;;19.50;52.00;;;;;;4541033;31;20204;-70
2022/04/07 02:45:40;;;;;;;4.57;1.20;;;19.50;52.00;;;;;;4542259;31;20401;-70
2022/04/07 02:48:07;;;;;;;5.30;1.40;;;19.50;52.00;;;;;;4542561;31;20217;-70
2022/04/07 02:50:33;;;;;;;2.78;1.02;;;19.50;52.00;;;;;;4542091;31;20094;-70
2022/04/07 02:52:58;;;;;;;4.20;1.50;;;19.50;51.90;;;;;;4542505;31;20068;-69
2022/04/07 02:55:24;;;;;;;5.15;1.20;;;19.50;51.90;;;;;;4542394;31;20377;-70
2022/04/07 02:57:50;;;;;;;5.03;1.33;;;19.50;52.00;;;;;;4542157;31;20071;-70
2022/04/07 03:00:16;;;;;;;7.60;1.60;;;19.50;51.90;;;;;;4527003;31;20417;-70
2022/04/07 03:02:42;;;;;;;3.58;1.15;;;19.50;52.00;;;;;;4542287;31;20068;-70
2022/04/07 03:05:08;;;;;;;4.53;1.10;;;19.50;52.00;;;;;;4528002;31;20163;-70
2022/04/07 03:07:35;;;;;;;4.90;1.50;;;19.40;51.90;;;;;;4541906;31;20130;-69
2022/04/07 03:10:01;;;;;;;4.05;1.38;;;19.40;51.90;;;;;;4542253;31;20090;-69
2022/04/07 03:12:27;;;;;;;4.25;1.40;;;19.40;51.90;;;;;;4542044;31;20072;-70
2022/04/07 03:14:53;;;;;;;3.88;1.20;;;19.40;51.90;;;;;;4541981;31;20111;-70
2022/04/07 03:17:19;;;;;;;4.85;1.42;;;19.40;51.90;;;;;;4527253;31;20115;-70
2022/04/07 03:19:45;;;;;;;5.45;1.30;;;19.40;51.90;;;;;;4542131;31;20123;-70
2022/04/07 03:22:12;;;;;;;4.35;1.35;;;19.40;51.90;;;;;;4542008;31;20176;-70
2022/04/07 03:24:38;;;;;;;6.57;1.88;;;19.40;51.90;;;;;;4541797;31;20229;-70
2022/04/07 03:27:06;;;;;;;4.63;1.48;;;19.40;51.90;;;;;;4541880;31;20083;-70
2022/04/07 03:29:32;;;;;;;5.72;1.50;;;19.40;51.90;;;;;;4526619;31;20200;-70
2022/04/07 03:31:58;;;;;;;5.75;1.63;;;19.40;51.90;;;;;;4541950;31;20180;-70
2022/04/07 03:34:24;;;;;;;6.95;1.50;;;19.40;51.80;;;;;;4541579;31;20083;-70
2022/04/07 03:36:50;;;;;;;6.85;1.85;;;19.30;51.80;;;;;;4541287;31;20131;-70
2022/04/07 03:39:16;;;;;;;5.63;2.08;;;19.40;51.80;;;;;;4541535;31;20125;-70
2022/04/07 03:41:42;;;;;;;3.35;1.38;;;19.30;51.80;;;;;;4541773;31;20209;-70
2022/04/07 03:44:10;;;;;;;4.40;1.42;;;19.30;51.80;;;;;;4541198;31;20516;-70
2022/04/07 03:46:37;;;;;;;5.75;1.58;;;19.30;51.80;;;;;;4541590;31;20072;-70
2022/04/07 03:49:03;;;;;;;5.53;1.55;;;19.30;51.80;;;;;;4541444;31;20164;-70
2022/04/07 03:51:29;;;;;;;4.93;1.58;;;19.30;51.80;;;;;;4541191;31;20152;-70
2022/04/07 03:53:55;;;;;;;5.70;1.73;;;19.30;51.80;;;;;;4540876;31;20068;-70
2022/04/07 03:56:21;;;;;;;6.10;1.77;;;19.30;51.80;;;;;;4541257;31;20161;-70
2022/04/07 03:58:47;;;;;;;4.68;1.25;;;19.30;51.80;;;;;;4540942;31;20215;-70
2022/04/07 04:01:13;;;;;;;5.07;1.70;;;19.30;51.80;;;;;;4540971;31;20522;-70
2022/04/07 04:03:39;;;;;;;4.85;1.90;;;19.30;51.80;;;;;;4526700;31;20095;-70
2022/04/07 04:06:05;;;;;;;8.95;1.30;;;19.30;51.80;;;;;;4541312;31;20119;-69
2022/04/07 04:08:31;;;;;;;6.05;1.30;;;19.30;51.80;;;;;;4541290;31;20091;-70
2022/04/07 04:10:57;;;;;;;8.77;2.17;;;19.30;51.80;;;;;;4526822;31;20165;-70
2022/04/07 04:13:24;;;;;;;5.88;1.50;;;19.30;51.80;;;;;;4526780;31;20088;-70
2022/04/07 04:15:50;;;;;;;5.85;1.50;;;19.30;51.80;;;;;;4541038;31;20204;-70
2022/04/07 04:18:16;;;;;;;5.00;1.42;;;19.20;51.70;;;;;;4526557;31;20359;-70
2022/04/07 04:20:42;;;;;;;6.90;1.50;;;19.20;51.70;;;;;;4540955;31;20076;-70
2022/04/07 04:23:08;;;;;;;4.57;1.52;;;19.20;51.70;;;;;;4526472;31;20078;-69
2022/04/07 04:25:33;;;;;;;5.35;1.67;;;19.20;51.70;;;;;;4540738;31;20232;-70
2022/04/07 04:28:00;;;;;;;5.18;1.52;;;19.20;51.70;;;;;;4526409;31;20086;-70
2022/04/07 04:30:26;;;;;;;5.78;1.80;;;19.20;51.70;;;;;;4540585;31;20390;-70
2022/04/07 04:32:52;;;;;;;6.82;1.65;;;19.20;51.70;;;;;;4526311;31;20072;-70
2022/04/07 04:35:18;;;;;;;4.90;1.60;;;19.20;51.70;;;;;;4540476;31;20064;-70
2022/04/07 04:37:44;;;;;;;6.68;1.80;;;19.20;51.70;;;;;;4526119;31;20119;-70
2022/04/07 04:40:10;;;;;;;7.80;1.77;;;19.20;51.70;;;;;;4513072;31;20470;-70
2022/04/07 04:42:36;;;;;;;5.97;1.63;;;19.20;51.70;;;;;;4540573;31;20076;-70
2022/04/07 04:45:02;;;;;;;6.97;1.90;;;19.20;51.70;;;;;;4540605;31;20087;-70
2022/04/07 04:47:28;;;;;;;6.07;1.63;;;19.20;51.70;;;;;;4540568;31;20079;-70
2022/04/07 04:49:54;;;;;;;4.93;1.90;;;19.10;51.80;;;;;;4539995;31;20157;-70
2022/04/07 04:52:20;;;;;;;5.75;1.67;;;19.20;51.70;;;;;;4540538;31;20144;-70
2022/04/07 04:54:45;;;;;;;7.35;2.00;;;19.20;51.80;;;;;;4540415;31;20068;-70
2022/04/07 04:57:11;;;;;;;7.32;1.73;;;19.20;51.70;;;;;;4525734;31;20072;-70
2022/04/07 04:59:37;;;;;;;6.45;1.70;;;19.20;51.70;;;;;;4525733;31;20071;-70
2022/04/07 05:02:04;;;;;;;8.13;2.10;;;19.10;51.70;;;;;;4540269;31;20068;-70
2022/04/07 05:04:31;;;;;;;4.95;1.70;;;19.10;51.70;;;;;;4540201;31;20390;-70
2022/04/07 05:06:58;;;;;;;8.02;2.25;;;19.10;51.70;;;;;;4511842;31;20094;-70
2022/04/07 05:09:23;;;;;;;6.72;1.90;;;19.10;51.70;;;;;;4525413;31;20090;-70
2022/04/07 05:11:50;;;;;;;6.10;1.40;;;19.10;51.70;;;;;;4525606;31;20148;-70
2022/04/07 05:14:16;;;;;;;4.50;1.55;;;19.10;51.80;;;;;;4540365;31;20080;-70
2022/04/07 05:16:41;;;;;;;6.80;1.70;;;19.10;51.80;;;;;;4540106;31;20072;-70
2022/04/07 05:19:07;;;;;;;6.53;1.88;;;19.10;51.70;;;;;;4525626;31;20152;-70
2022/04/07 05:21:33;;;;;;;7.13;1.80;;;19.10;51.80;;;;;;4539675;31;20091;-70
2022/04/07 05:23:59;;;;;;;7.63;1.92;;;19.10;51.70;;;;;;4540012;31;20206;-70
2022/04/07 05:26:25;;;;;;;4.57;1.58;;;19.10;51.80;;;;;;4539895;31;20691;-70
2022/04/07 05:28:51;;;;;;;6.43;1.55;;;19.10;51.80;;;;;;4539591;31;20539;-70
2022/04/07 05:31:17;;;;;;;7.05;1.83;;;19.10;51.80;;;;;;4539626;31;20076;-70
2022/04/07 05:33:43;;;;;;;8.50;2.28;;;19.10;51.80;;;;;;4539542;31;20209;-70
2022/04/07 05:36:09;;;;;;;5.13;1.70;;;19.00;51.70;;;;;;4540079;31;20073;-70
2022/04/07 05:38:35;;;;;;;6.63;2.05;;;19.00;51.70;;;;;;4539800;31;20556;-70
2022/04/07 05:41:01;;;;;;;7.45;1.92;;;19.00;51.70;;;;;;4539773;31;20079;-70
2022/04/07 05:43:27;;;;;;;6.40;1.88;;;19.00;51.70;;;;;;4539662;31;20132;-70
2022/04/07 05:45:53;;;;;;;7.90;2.08;;;19.00;51.70;;;;;;4525078;31;20398;-70
2022/04/07 05:48:18;;;;;;;5.30;1.95;;;19.00;51.70;;;;;;4525313;31;20223;-70
2022/04/07 05:50:44;;;;;;;7.80;2.00;;;19.00;51.70;;;;;;4522207;31;20132;-71
2022/04/07 05:53:10;;;;;;;8.02;2.38;;;19.00;51.70;;;;;;4523563;31;20072;-70
2022/04/07 05:55:37;;;;;;;5.18;1.90;;;19.00;51.70;;;;;;4508995;31;20057;-70
2022/04/07 05:58:04;;;;;;;6.40;1.58;;;19.00;51.70;;;;;;4523890;31;20146;-70
2022/04/07 06:00:31;;;;;;;5.00;1.73;;;19.00;51.70;;;;;;4522415;31;20231;-70
2022/04/07 06:02:57;;;;;;;10.25;2.30;;;19.00;51.70;;;;;;4522519;31;20416;-70
2022/04/07 06:05:22;;;;;;;6.47;2.00;;;18.90;51.70;;;;;;4523367;31;20497;-71
2022/04/07 06:07:48;;;;;;;7.07;2.03;;;19.00;51.70;;;;;;4523679;31;20223;-70
2022/04/07 06:10:15;;;;;;;6.60;1.80;;;19.00;51.70;;;;;;4522403;31;20483;-70
2022/04/07 06:12:43;;;;;;;8.70;2.33;;;19.00;51.70;;;;;;4523461;31;20141;-71
2022/04/07 06:15:13;;;;;;;6.93;1.80;;;18.90;51.60;;;;;;4523206;31;20150;-70
2022/04/07 06:17:46;;;;;;;7.50;2.13;;;18.90;51.60;;;;;;4524417;31;20076;-70
2022/04/07 06:20:13;;;;;;;7.95;1.98;;;18.90;51.60;;;;;;4526457;31;20085;-71
2022/04/07 06:22:41;;;;;;;7.32;2.20;;;18.90;51.60;;;;;;4526462;31;20072;-69
2022/04/07 06:25:07;;;;;;;9.05;1.60;;;18.90;51.60;;;;;;4526617;31;20408;-70
2022/04/07 06:27:34;;;;;;;5.80;1.75;;;18.90;51.50;;;;;;4526685;31;20087;-70
2022/04/07 06:30:05;;;;;;;8.45;1.90;;;18.90;51.50;;;;;;4525892;31;20216;-70
2022/04/07 06:32:31;;;;;;;6.50;1.73;;;18.90;51.50;;;;;;4525869;31;20132;-78
2022/04/07 06:34:57;;;;;;;6.13;1.75;;;18.90;51.50;;;;;;4509078;31;20064;-70
2022/04/07 06:37:23;;;;;;;5.68;1.30;;;18.90;51.50;;;;;;4525425;31;20174;-71
2022/04/07 06:39:49;;;;;;;6.03;1.55;;;18.80;51.20;;;;;;4524358;31;20120;-70
2022/04/07 06:42:15;;;;;;;5.18;1.60;;;18.80;50.80;;;;;;4525387;31;20103;-71
2022/04/07 06:44:42;;;;;;;5.63;1.30;;;18.80;50.60;;;;;;4525492;31;20088;-69
2022/04/07 06:47:07;;;;;;;6.65;1.27;;;18.70;50.20;;;;;;4511292;31;20083;-70
2022/04/07 06:49:33;;;;;;;7.22;1.65;;;18.80;50.60;;;;;;4516108;31;20408;-70
2022/04/07 06:51:59;;;;;;;7.68;1.30;;;18.70;50.70;;;;;;4541455;31;20060;-69
2022/04/07 06:54:25;;;;;;;5.57;1.63;;;18.80;50.80;;;;;;4541255;31;20193;-70
2022/04/07 06:56:51;;;;;;;6.13;1.63;;;18.70;50.80;;;;;;4541197;31;20064;-70
2022/04/07 06:59:16;;;;;;;6.38;1.20;;;18.70;50.90;;;;;;4526327;31;20227;-70
2022/04/07 07:01:42;;;;;;;5.78;1.27;;;18.70;50.90;;;;;;4541319;31;20099;-70
2022/04/07 07:04:08;;;;;;;3.78;1.10;;;18.70;51.00;;;;;;4526643;31;20072;-70
2022/04/07 07:06:34;;;;;;;5.28;1.17;;;18.80;50.90;;;;;;4540846;31;20457;-70
2022/04/07 07:09:00;;;;;;;4.10;1.00;;;18.70;50.80;;;;;;4526637;31;20283;-70
2022/04/07 07:11:25;;;;;;;4.43;1.13;;;18.70;50.90;;;;;;4518333;31;20069;-70
2022/04/07 07:13:51;;;;;;;3.75;1.08;;;18.70;50.90;;;;;;4525842;31;20083;-70
2022/04/07 07:16:17;;;;;;;4.55;1.30;;;18.80;51.00;;;;;;4525627;31;20077;-71
2022/04/07 07:18:43;;;;;;;4.00;1.27;;;18.80;51.00;;;;;;4525997;31;20080;-70
2022/04/07 07:21:09;;;;;;;2.58;0.75;;;18.80;50.90;;;;;;4524957;31;20076;-70
2022/04/07 07:23:34;;;;;;;3.05;1.05;;;18.90;50.80;;;;;;4527253;31;20113;-70
2022/04/07 07:26:01;;;;;;;3.42;1.00;;;19.00;50.60;;;;;;4529042;31;20208;-70
2022/04/07 07:28:26;;;;;;;4.75;1.02;;;19.10;50.40;;;;;;4524772;31;20219;-70
2022/04/07 07:30:53;;;;;;;3.10;0.90;;;19.20;50.20;;;;;;4511517;31;20125;-70
2022/04/07 07:33:19;;;;;;;3.65;1.10;;;19.30;50.00;;;;;;4510425;31;20184;-70
2022/04/07 07:35:46;;;;;;;3.22;1.00;;;19.40;49.70;;;;;;4524687;31;20101;-69
2022/04/07 07:38:12;;;;;;;4.10;1.00;;;19.50;49.50;;;;;;4524644;31;20076;-70
2022/04/07 07:40:38;;;;;;;2.83;0.93;;;19.70;49.40;;;;;;4525476;31;20502;-70
2022/04/07 07:43:04;;;;;;;4.13;1.00;;;19.80;49.20;;;;;;4524565;31;20156;-70
2022/04/07 07:45:32;;;;;;;3.17;1.00;;;19.90;48.90;;;;;;4510595;31;20161;-70
2022/04/07 07:47:59;;;;;;;2.42;0.77;;;20.00;48.70;;;;;;4511269;31;20080;-70
2022/04/07 07:50:24;;;;;;;3.95;0.70;;;20.10;48.50;;;;;;4525330;31;20136;-71
2022/04/07 07:52:51;;;;;;;4.68;0.80;;;20.20;48.20;;;;;;4525004;31;20084;-69
2022/04/07 07:55:17;;;;;;;6.35;0.90;;;20.30;48.00;;;;;;4510875;31;20106;-70
2022/04/07 07:57:44;;;;;;;3.38;0.80;;;20.40;47.90;;;;;;4525288;31;20083;-69
2022/04/07 08:00:14;;;;;;;2.05;0.52;;;20.60;47.80;;;;;;4524981;31;20173;-70
2022/04/07 08:02:40;;;;;;;5.10;0.95;;;20.60;47.70;;;;;;4520761;31;20088;-69
2022/04/07 08:05:07;;;;;;;4.45;0.60;;;20.70;47.70;;;;;;4526868;31;20154;-69
2022/04/07 08:07:37;;;;;;;4.20;1.00;;;20.70;47.70;;;;;;4526529;31;20078;-69
2022/04/07 08:10:03;;;;;;;6.30;1.15;;;20.80;47.70;;;;;;4541348;31;20212;-69
2022/04/07 08:12:29;;;;;;;4.00;1.20;;;20.80;47.80;;;;;;4540657;31;20229;-71
2022/04/07 08:14:54;;;;;;;3.03;0.70;;;20.90;47.80;;;;;;4541366;31;20096;-69
2022/04/07 08:17:21;;;;;;;7.28;0.73;;;20.80;47.90;;;;;;4540991;31;20090;-69
2022/04/07 08:19:47;;;;;;;3.95;0.82;;;20.80;48.00;;;;;;4526426;31;20084;-70
2022/04/07 08:22:13;;;;;;;3.00;0.80;;;20.90;48.10;;;;;;4541193;31;20076;-69
2022/04/07 08:24:39;;;;;;;3.33;0.98;;;20.90;48.10;;;;;;4541071;31;20092;-69
2022/04/07 08:27:06;;;;;;;3.30;0.80;;;20.90;48.30;;;;;;4540594;31;20104;-69
2022/04/07 08:29:32;;;;;;;5.45;1.13;;;20.90;48.30;;;;;;4540265;31;20100;-69
2022/04/07 08:31:59;;;;;;;4.00;0.57;;;20.80;48.40;;;;;;4540791;31;20651;-69
2022/04/07 08:34:25;;;;;;;2.85;0.70;;;20.80;48.50;;;;;;4540919;31;20121;-70
2022/04/07 08:36:52;;;;;;;4.10;0.70;;;20.80;48.70;;;;;;4540397;31;20060;-70
2022/04/07 08:39:18;;;;;;;4.60;0.80;;;20.70;48.80;;;;;;4540901;31;20160;-70
2022/04/07 08:41:47;;;;;;;3.67;1.00;;;20.70;48.90;;;;;;4540136;31;20153;-69
2022/04/07 08:44:15;;;;;;;3.97;0.90;;;20.70;49.10;;;;;;4540300;31;20103;-69
2022/04/07 08:46:48;;;;;;;5.45;1.00;;;20.60;49.10;;;;;;4540415;31;20536;-71
2022/04/07 08:49:15;;;;;;;5.60;0.90;;;20.60;49.20;;;;;;4533875;31;20492;-71
2022/04/07 08:51:41;;;;;;;2.97;0.90;;;20.60;49.30;;;;;;4523340;31;20525;-71
2022/04/07 08:54:12;;;;;;;2.90;0.80;;;20.60;49.40;;;;;;4523955;31;20528;-70
2022/04/07 08:56:39;;;;;;;5.47;0.75;;;20.60;49.50;;;;;;4524406;31;20069;-70
2022/04/07 08:59:05;;;;;;;4.03;0.68;;;20.60;49.50;;;;;;4523500;31;20480;-69
2022/04/07 09:01:31;;;;;;;12.45;1.13;;;20.60;49.70;;;;;;4523547;31;20232;-68
2022/04/07 09:03:56;;;;;;;5.18;1.10;;;20.60;49.60;;;;;;4525231;31;20497;-69
2022/04/07 09:06:25;;;;;;;4.95;0.95;;;20.60;49.70;;;;;;4523264;31;20091;-69
2022/04/07 09:08:51;;;;;;;3.35;1.00;;;20.60;49.70;;;;;;4525605;31;20085;-69
2022/04/07 09:11:19;;;;;;;5.90;0.70;;;20.50;49.70;;;;;;4516373;31;20126;-70
2022/04/07 09:13:46;;;;;;;5.68;1.02;;;20.60;49.80;;;;;;4539136;31;20254;-69
2022/04/07 09:16:14;;;;;;;4.60;1.05;;;20.50;49.70;;;;;;4534392;31;20210;-66
2022/04/07 09:18:44;;;;;;;4.65;1.10;;;20.60;49.80;;;;;;4508870;31;20222;-81
2022/04/07 09:21:36;;;;;;;6.53;1.02;;;20.50;49.70;;;;;;4508196;31;20188;-82
2022/04/07 09:24:07;;;;;;;5.30;0.77;;;20.60;49.60;;;;;;4508309;31;20128;-80
2022/04/07 09:26:42;;;;;;;4.05;0.90;;;20.50;49.40;;;;;;4533737;31;20659;-69
2022/04/07 09:29:10;;;;;;;3.13;0.70;;;20.50;49.30;;;;;;4538035;31;20165;-69
2022/04/07 09:31:51;;;;;;;6.00;1.17;;;20.50;49.20;;;;;;4538658;31;20076;-69
2022/04/07 09:34:31;;;;;;;4.00;1.00;;;20.50;49.20;;;;;;4524514;31;20218;-69
2022/04/07 09:37:07;;;;;;;5.30;1.05;;;20.50;49.20;;;;;;4539107;31;20151;-70
2022/04/07 09:39:44;;;;;;;7.90;1.40;;;20.50;49.20;;;;;;4524752;31;20091;-69
2022/04/07 09:42:25;;;;;;;2.33;0.70;;;20.50;49.10;;;;;;4534556;31;20080;-69
2022/04/07 09:44:56;;;;;;;4.22;1.05;;;20.50;49.00;;;;;;4524396;31;20075;-68
2022/04/07 09:47:22;;;;;;;4.03;1.10;;;20.50;49.10;;;;;;4539192;31;20083;-69
2022/04/07 09:49:49;;;;;;;6.25;1.05;;;20.50;49.10;;;;;;4539243;31;20659;-69
2022/04/07 09:52:21;;;;;;;8.35;0.90;;;20.50;49.10;;;;;;4539203;31;20184;-69
2022/04/07 09:54:54;;;;;;;4.38;1.20;;;20.50;48.90;;;;;;4540166;31;20071;-68
2022/04/07 09:57:23;;;;;;;4.57;1.13;;;20.50;48.70;;;;;;4539412;31;20103;-68
2022/04/07 09:59:49;;;;;;;6.72;1.15;;;20.50;48.50;;;;;;4538531;31;20096;-67
2022/04/07 10:02:17;;;;;;;6.35;1.23;;;20.50;48.30;;;;;;4536593;31;20143;-68
2022/04/07 10:04:44;;;;;;;3.80;1.13;;;20.50;48.10;;;;;;4538301;31;20297;-68
2022/04/07 10:07:11;;;;;;;4.38;1.00;;;20.50;48.00;;;;;;4538403;31;20130;-68
2022/04/07 10:09:42;;;;;;;4.30;0.98;;;20.50;47.90;;;;;;4538436;31;20190;-68
2022/04/07 10:12:12;;;;;;;7.75;1.70;;;20.50;47.90;;;;;;4538770;31;20080;-68
2022/04/07 10:14:39;;;;;;;5.63;1.40;;;20.50;47.90;;;;;;4538447;31;20288;-66
2022/04/07 10:17:06;;;;;;;7.63;1.48;;;20.40;47.80;;;;;;4530413;31;20524;-68
2022/04/07 10:20:00;;;;;;;5.53;1.40;;;20.40;47.80;;;;;;4527705;31;20115;-68
2022/04/07 10:22:49;;;;;;;5.22;1.40;;;20.30;47.50;;;;;;4535322;31;20624;-68
2022/04/07 10:25:16;;;;;;;4.97;1.13;;;20.30;47.50;;;;;;4531001;31;20568;-68
2022/04/07 10:27:45;;;;;;;7.40;1.23;;;20.30;47.70;;;;;;4519173;31;20079;-68
2022/04/07 10:30:16;;;;;;;5.88;1.50;;;20.30;47.70;;;;;;4523152;31;20289;-67
2022/04/07 10:32:46;;;;;;;7.70;1.58;;;20.20;47.70;;;;;;4534906;31;20092;-68
2022/04/07 10:35:33;;;;;;;7.15;1.55;;;20.20;47.80;;;;;;4538519;31;20080;-68
2022/04/07 10:38:04;;;;;;;6.47;1.45;;;20.20;47.30;;;;;;4525266;31;20228;-69
2022/04/07 10:40:49;;;;;;;5.00;1.60;;;20.20;47.80;;;;;;4537418;31;20505;-69
2022/04/07 10:43:14;;;;;;;5.63;1.30;;;20.20;47.60;;;;;;4539555;31;20127;-69
2022/04/07 10:45:42;;;;;;;5.30;1.42;;;20.10;47.80;;;;;;4539162;31;20272;-69
2022/04/07 10:48:20;;;;;;;4.10;1.23;;;20.10;47.80;;;;;;4539716;31;20079;-69
2022/04/07 10:50:50;;;;;;;4.65;1.05;;;20.00;47.60;;;;;;4534336;31;20546;-69
2022/04/07 10:53:19;;;;;;;4.88;1.40;;;20.10;47.70;;;;;;4523453;31;20106;-69
2022/04/07 10:56:05;;;;;;;5.70;1.30;;;20.00;48.50;;;;;;4523227;31;20511;-69
2022/04/07 10:58:49;;;;;;;6.32;1.20;;;20.00;47.50;;;;;;4523656;31;20072;-70
2022/04/07 11:01:14;;;;;;;4.97;1.42;;;20.00;47.60;;;;;;4523401;31;20151;-69
2022/04/07 11:03:42;;;;;;;6.07;1.45;;;20.00;47.60;;;;;;4524060;31;20222;-69
2022/04/07 11:06:10;;;;;;;5.07;1.05;;;19.90;47.50;;;;;;4526054;31;20487;-70
2022/04/07 11:08:36;;;;;;;6.05;1.38;;;20.00;47.50;;;;;;4530561;31;20102;-70
2022/04/07 11:11:02;;;;;;;5.82;1.58;;;19.90;47.40;;;;;;4541606;31;20111;-69
2022/04/07 11:13:46;;;;;;;5.05;1.50;;;19.90;47.40;;;;;;4530414;31;20128;-70
2022/04/07 11:16:16;;;;;;;4.90;1.20;;;19.90;47.30;;;;;;4541086;31;20064;-70
2022/04/07 11:19:10;;;;;;;11.43;1.73;;;19.90;47.50;;;;;;4541485;31;20501;-68
2022/04/07 11:21:49;;;;;;;4.22;1.08;;;19.90;47.50;;;;;;4541365;31;20080;-68
2022/04/07 11:24:24;;;;;;;5.72;1.50;;;19.90;47.50;;;;;;4541052;31;20236;-69
2022/04/07 11:26:54;;;;;;;5.60;1.58;;;19.90;47.70;;;;;;4541298;31;20064;-69
2022/04/07 11:29:33;;;;;;;7.30;1.40;;;19.80;47.70;;;;;;4541234;31;20084;-68
2022/04/07 11:32:07;;;;;;;9.63;1.48;;;19.90;47.80;;;;;;4541164;31;20093;-68
2022/04/07 11:34:39;;;;;;;5.53;1.48;;;19.80;47.80;;;;;;4541141;31;20080;-70
2022/04/07 11:37:17;;;;;;;7.95;1.63;;;19.80;47.80;;;;;;4541441;31;20572;-69
2022/04/07 11:39:48;;;;;;;7.93;1.50;;;19.80;47.80;;;;;;4540734;31;20116;-69
2022/04/07 11:42:17;;;;;;;6.57;1.85;;;19.80;47.80;;;;;;4539550;31;20409;-69
2022/04/07 11:44:45;;;;;;;5.93;1.67;;;19.80;47.70;;;;;;4540355;31;20178;-69
2022/04/07 11:47:23;;;;;;;6.47;1.85;;;19.80;47.60;;;;;;4540895;31;20222;-69
2022/04/07 11:49:50;;;;;;;4.95;1.58;;;19.70;47.40;;;;;;4540728;31;20477;-69
2022/04/07 11:52:21;;;;;;;6.15;1.80;;;19.70;47.40;;;;;;4540531;31;20123;-69
2022/04/07 11:54:47;;;;;;;7.57;1.98;;;19.70;47.30;;;;;;4540554;31;20433;-69
2022/04/07 11:57:13;;;;;;;7.35;1.73;;;19.70;47.30;;;;;;4540573;31;20521;-69
2022/04/07 11:59:39;;;;;;;4.75;1.50;;;19.70;47.20;;;;;;4540293;31;20095;-69
2022/04/07 12:02:08;;;;;;;8.02;1.80;;;19.70;47.20;;;;;;4540407;31;20647;-69
2022/04/07 12:04:36;;;;;;;6.68;1.60;;;19.70;47.20;;;;;;4540507;31;20056;-69
2022/04/07 12:07:05;;;;;;;8.02;1.90;;;19.60;47.10;;;;;;4540340;31;20128;-69
2022/04/07 12:09:31;;;;;;;5.00;1.60;;;19.60;47.10;;;;;;4540168;31;20094;-69
2022/04/07 12:11:57;;;;;;;7.80;2.20;;;19.60;47.00;;;;;;4540448;31;20068;-69
2022/04/07 12:14:24;;;;;;;5.65;1.65;;;19.60;47.00;;;;;;4540285;31;20128;-70
2022/04/07 12:16:51;;;;;;;6.50;1.90;;;19.60;47.00;;;;;;4539989;31;20474;-70
2022/04/07 12:19:19;;;;;;;6.85;1.85;;;19.50;46.90;;;;;;4540931;31;20627;-70
2022/04/07 12:22:00;;;;;;;7.45;1.60;;;19.50;46.80;;;;;;4539892;31;20572;-70
2022/04/07 12:24:27;;;;;;;6.97;1.60;;;19.50;46.80;;;;;;4540205;31;20107;-71
2022/04/07 12:26:56;;;;;;;5.82;1.83;;;19.50;46.90;;;;;;4540087;31;20149;-70
2022/04/07 12:29:25;;;;;;;7.63;1.50;;;19.50;46.90;;;;;;4539884;31;20486;-71
2022/04/07 12:32:17;;;;;;;6.38;1.80;;;19.50;46.70;;;;;;4540107;31;20156;-71
2022/04/07 12:34:49;;;;;;;7.97;1.60;;;19.40;46.70;;;;;;4536494;31;20080;-71
2022/04/07 12:37:28;;;;;;;5.90;1.63;;;19.40;46.80;;;;;;4526277;31;20219;-70
2022/04/07 12:39:55;;;;;;;6.22;1.35;;;19.40;46.70;;;;;;4538702;31;20076;-70
2022/04/07 12:42:21;;;;;;;5.45;1.20;;;19.40;46.90;;;;;;4539484;31;20552;-71
2022/04/07 12:44:48;;;;;;;7.15;1.50;;;19.40;47.00;;;;;;4528690;31;20076;-69
2022/04/07 12:47:16;;;;;;;6.35;1.33;;;19.40;47.30;;;;;;4528090;31;20130;-70
2022/04/07 12:49:59;;;;;;;6.53;1.20;;;19.40;47.10;;;;;;4537641;31;20087;-70